Time;durP1;ratioP1;P1;durP2;ratioP2;P2;SDS_P1;SDS_P2;PMS_P1;PMS_P2;Temp;Humidity;BMP_temperature;BMP_pressure;BME280_temperature;BME280_humidity;BME280_pressure;Samples;Min_cycle;Max_cycle;Signal;HPM_P1;HPM_P2
2023/10/01 00:00:17;;;;;;;14.13;9.52;;;;;;;12.13;100.00;102347.56;5052698;28;20051;-51
2023/10/01 00:02:43;;;;;;;11.55;9.07;;;;;;;12.08;100.00;102352.31;5051408;28;20043;-52
2023/10/01 00:05:10;;;;;;;12.70;9.13;;;;;;;12.07;100.00;102353.25;5052550;28;20029;-51
2023/10/01 00:07:39;;;;;;;12.43;8.45;;;;;;;12.04;100.00;102362.31;5051165;28;20478;-53
2023/10/01 00:10:10;;;;;;;13.45;8.90;;;;;;;11.98;100.00;102354.66;5052109;28;20032;-55
2023/10/01 00:12:40;;;;;;;15.45;9.73;;;;;;;11.98;100.00;102360.84;5050756;28;20364;-53
2023/10/01 00:15:10;;;;;;;11.40;9.25;;;;;;;11.97;100.00;102366.25;5051475;28;20029;-52
2023/10/01 00:17:36;;;;;;;11.18;8.55;;;;;;;11.94;100.00;102355.78;5052220;28;20017;-54
2023/10/01 00:20:09;;;;;;;10.77;8.63;;;;;;;11.94;100.00;102358.44;5052314;28;20024;-54
2023/10/01 00:22:37;;;;;;;14.75;8.40;;;;;;;11.92;100.00;102361.19;5049531;28;20117;-52
2023/10/01 00:25:04;;;;;;;14.35;8.50;;;;;;;11.90;100.00;102362.22;5051551;28;20056;-51
2023/10/01 00:27:30;;;;;;;12.23;8.45;;;;;;;11.88;100.00;102364.94;5051625;28;20107;-54
2023/10/01 00:29:56;;;;;;;11.25;8.38;;;;;;;11.89;100.00;102371.13;5051903;28;20060;-53
2023/10/01 00:32:22;;;;;;;13.23;8.95;;;;;;;11.86;100.00;102364.19;5051049;28;20021;-55
2023/10/01 00:34:48;;;;;;;12.05;8.32;;;;;;;11.80;100.00;102353.88;5051859;28;20029;-53
2023/10/01 00:37:13;;;;;;;13.80;8.77;;;;;;;11.79;100.00;102353.03;5048176;28;20074;-52
2023/10/01 00:39:38;;;;;;;11.00;8.23;;;;;;;11.81;100.00;102348.47;5050473;28;20043;-55
2023/10/01 00:42:06;;;;;;;12.43;8.57;;;;;;;11.80;100.00;102356.56;5051578;28;20028;-54
2023/10/01 00:44:34;;;;;;;10.77;8.82;;;;;;;11.76;100.00;102355.88;5048452;28;20025;-52
2023/10/01 00:46:59;;;;;;;11.82;8.27;;;;;;;11.76;100.00;102350.56;5051786;28;20021;-55
2023/10/01 00:49:26;;;;;;;13.32;8.57;;;;;;;11.74;100.00;102354.22;5051024;28;20082;-52
2023/10/01 00:51:52;;;;;;;12.15;8.20;;;;;;;11.72;100.00;102340.16;5051716;28;20055;-51
2023/10/01 00:54:17;;;;;;;11.02;7.78;;;;;;;11.68;100.00;102336.81;5049499;28;20461;-52
2023/10/01 00:56:44;;;;;;;11.77;8.05;;;;;;;11.68;100.00;102334.16;5051577;28;20013;-52
2023/10/01 00:59:10;;;;;;;12.75;7.95;;;;;;;11.68;100.00;102333.31;5050907;28;20479;-51
2023/10/01 01:01:39;;;;;;;14.45;8.38;;;;;;;11.65;100.00;102331.66;5051547;28;20032;-51
2023/10/01 01:04:09;;;;;;;17.05;7.38;;;;;;;11.65;100.00;102329.00;5049816;28;20251;-52
2023/10/01 01:06:37;;;;;;;11.57;7.15;;;;;;;11.63;100.00;102314.94;5047823;28;20057;-51
2023/10/01 01:09:03;;;;;;;12.02;7.40;;;;;;;11.61;100.00;102306.19;5050231;28;20490;-51
2023/10/01 01:11:29;;;;;;;10.02;7.43;;;;;;;11.62;100.00;102310.56;5051526;28;20025;-52
2023/10/01 01:13:57;;;;;;;13.20;7.75;;;;;;;11.60;100.00;102310.63;5050892;28;20024;-52
2023/10/01 01:16:25;;;;;;;11.80;8.23;;;;;;;11.58;100.00;102307.22;5048120;28;20029;-51
2023/10/01 01:18:51;;;;;;;11.20;7.78;;;;;;;11.59;100.00;102302.75;5050170;28;20483;-52
2023/10/01 01:21:18;;;;;;;11.50;7.13;;;;;;;11.56;100.00;102303.78;5051217;28;20025;-51
2023/10/01 01:23:46;;;;;;;12.10;7.88;;;;;;;11.55;100.00;102295.88;5050288;28;20040;-53
2023/10/01 01:26:20;;;;;;;13.43;7.30;;;;;;;11.56;100.00;102309.09;5051624;28;20479;-51
2023/10/01 01:28:46;;;;;;;10.75;7.28;;;;;;;11.56;100.00;102308.25;5049994;28;20033;-51
2023/10/01 01:31:11;;;;;;;14.18;7.45;;;;;;;11.52;100.00;102301.38;5051445;28;20036;-50
2023/10/01 01:33:52;;;;;;;10.75;7.35;;;;;;;11.53;100.00;102306.63;5051241;28;20435;-50
2023/10/01 01:36:19;;;;;;;11.77;7.47;;;;;;;11.54;100.00;102299.50;5049107;28;20421;-50
2023/10/01 01:39:09;;;;;;;13.00;7.72;;;;;;;11.52;100.00;102293.41;5050823;28;20029;-51
2023/10/01 01:41:42;;;;;;;11.95;7.60;;;;;;;11.53;100.00;102305.78;5047982;28;20037;-52
2023/10/01 01:44:14;;;;;;;15.75;8.50;;;;;;;11.50;100.00;102295.31;5050922;28;20077;-51
2023/10/01 01:46:47;;;;;;;12.93;7.07;;;;;;;11.52;100.00;102296.91;5048507;28;20036;-52
2023/10/01 01:49:15;;;;;;;11.93;7.55;;;;;;;11.51;100.00;102295.22;5051145;28;20052;-51
2023/10/01 01:51:51;;;;;;;14.23;7.30;;;;;;;11.52;100.00;102288.94;5050098;28;20075;-51
2023/10/01 01:54:22;;;;;;;11.77;7.32;;;;;;;11.50;100.00;102282.84;5050846;28;20116;-53
2023/10/01 01:56:48;;;;;;;10.70;7.20;;;;;;;11.52;100.00;102286.28;5050917;28;20646;-54
2023/10/01 01:59:15;;;;;;;10.23;7.70;;;;;;;11.51;100.00;102295.22;5049775;28;20017;-52
2023/10/01 02:01:41;;;;;;;12.35;7.00;;;;;;;11.52;100.00;102291.59;5044399;28;20382;-54
2023/10/01 02:04:07;;;;;;;9.82;7.15;;;;;;;11.53;100.00;102293.31;5047631;28;20109;-52
2023/10/01 02:06:33;;;;;;;13.88;7.57;;;;;;;11.49;100.00;102294.44;5053019;28;20063;-52
2023/10/01 02:08:59;;;;;;;10.82;7.18;;;;;;;11.49;100.00;102289.13;5050833;28;20033;-52
2023/10/01 02:11:25;;;;;;;11.93;7.03;;;;;;;11.49;100.00;102286.47;5054460;28;20071;-52
2023/10/01 02:13:54;;;;;;;9.98;6.93;;;;;;;11.48;100.00;102284.75;5054163;28;20037;-52
2023/10/01 02:16:38;;;;;;;11.45;7.25;;;;;;;11.47;100.00;102280.34;5053650;28;20475;-54
2023/10/01 02:19:12;;;;;;;12.35;7.03;;;;;;;11.46;100.00;102274.19;5052198;28;20040;-52
2023/10/01 02:21:49;;;;;;;14.95;6.90;;;;;;;11.48;100.00;102268.78;5051987;28;20390;-55
2023/10/01 02:24:23;;;;;;;11.10;7.60;;;;;;;11.39;100.00;102262.19;5053034;28;20037;-54
2023/10/01 02:26:59;;;;;;;11.85;7.30;;;;;;;11.45;100.00;102274.28;5050705;28;20120;-53
2023/10/01 02:29:25;;;;;;;11.93;7.15;;;;;;;11.43;100.00;102268.19;5052858;28;20443;-53
2023/10/01 02:31:57;;;;;;;16.67;6.70;;;;;;;11.42;100.00;102266.47;5054363;28;20501;-54
2023/10/01 02:34:24;;;;;;;14.65;6.78;;;;;;;11.43;100.00;102270.84;5050892;28;20082;-51
2023/10/01 02:36:51;;;;;;;10.45;6.50;;;;;;;11.41;100.00;102276.25;5053911;28;20026;-52
2023/10/01 02:39:21;;;;;;;12.40;6.85;;;;;;;11.40;100.00;102271.03;5053700;28;20036;-52
2023/10/01 02:42:09;;;;;;;11.38;7.10;;;;;;;11.41;100.00;102275.41;5053601;28;20379;-52
2023/10/01 02:44:40;;;;;;;12.10;7.07;;;;;;;11.39;100.00;102275.50;5051536;28;20506;-52
2023/10/01 02:47:16;;;;;;;9.20;6.55;;;;;;;11.40;100.00;102281.66;5052800;28;20082;-52
2023/10/01 02:49:49;;;;;;;9.93;6.43;;;;;;;11.39;100.00;102280.81;5053949;28;20103;-52
2023/10/01 02:52:37;;;;;;;11.77;6.70;;;;;;;11.41;100.00;102286.06;5054199;28;20091;-51
2023/10/01 02:55:17;;;;;;;11.15;6.22;;;;;;;11.37;100.00;102282.69;5052504;28;20107;-52
2023/10/01 02:57:43;;;;;;;12.85;7.45;;;;;;;11.37;100.00;102287.16;5053634;28;20376;-53
2023/10/01 03:02:41;;;;;;;11.75;6.72;;;;;;;11.36;100.00;102278.31;5053379;28;20067;-52
2023/10/01 03:05:14;;;;;;;14.35;7.20;;;;;;;11.37;100.00;102284.50;5052994;28;20449;-53
2023/10/01 03:07:40;;;;;;;12.98;7.60;;;;;;;11.36;100.00;102288.09;5049834;28;20037;-51
2023/10/01 03:10:14;;;;;;;14.32;7.43;;;;;;;11.34;100.00;102279.34;5052365;28;20365;-52
2023/10/01 03:12:40;;;;;;;14.43;7.43;;;;;;;11.31;100.00;102280.38;5053277;28;20124;-51
2023/10/01 03:17:41;;;;;;;12.35;7.03;;;;;;;11.30;100.00;102268.03;5052472;28;20106;-52
2023/10/01 03:21:07;;;;;;;14.38;6.93;;;;;;;11.27;100.00;102276.16;5053676;28;20029;-51
2023/10/01 03:28:27;;;;;;;11.55;6.97;;;;;;;11.25;100.00;102286.06;5052959;28;20043;-52
2023/10/01 03:31:06;;;;;;;11.82;7.05;;;;;;;11.22;100.00;102279.09;5064699;28;20518;-52
2023/10/01 03:33:39;;;;;;;13.40;7.43;;;;;;;11.25;100.00;102280.72;5053065;28;20570;-52
2023/10/01 03:36:12;;;;;;;11.20;6.70;;;;;;;11.20;100.00;102280.97;5048920;28;20061;-52
2023/10/01 03:38:43;;;;;;;12.55;7.88;;;;;;;11.18;100.00;102274.91;5050772;28;20112;-53
2023/10/01 03:41:10;;;;;;;12.77;7.63;;;;;;;11.20;100.00;102278.31;5052360;28;20550;-51
2023/10/01 03:43:36;;;;;;;15.65;7.75;;;;;;;11.17;100.00;102275.84;5052673;28;20128;-52
2023/10/01 03:46:13;;;;;;;14.82;7.38;;;;;;;11.17;100.00;102273.16;5051748;28;20024;-51
2023/10/01 03:48:57;;;;;;;17.48;7.05;;;;;;;11.14;100.00;102268.06;5051217;28;20475;-52
2023/10/01 03:51:29;;;;;;;10.55;7.60;;;;;;;11.13;100.00;102265.47;5052883;28;20024;-51
2023/10/01 03:54:06;;;;;;;13.38;7.57;;;;;;;11.12;100.00;102272.56;5052615;28;20150;-52
2023/10/01 03:56:33;;;;;;;14.38;7.13;;;;;;;11.11;100.00;102263.75;5052196;28;20391;-51
2023/10/01 03:58:59;;;;;;;14.40;7.05;;;;;;;11.11;100.00;102269.06;5051982;28;20029;-51
2023/10/01 04:01:33;;;;;;;12.27;7.22;;;;;;;11.10;100.00;102266.50;5052464;28;20035;-50
2023/10/01 04:04:01;;;;;;;10.50;6.97;;;;;;;11.09;100.00;102263.00;5052559;28;20398;-51
2023/10/01 04:06:29;;;;;;;11.53;7.40;;;;;;;11.07;100.00;102264.88;5052494;28;20032;-52
2023/10/01 04:08:55;;;;;;;12.85;7.68;;;;;;;11.05;100.00;102263.25;5049780;28;20029;-52
2023/10/01 04:11:49;;;;;;;12.98;7.40;;;;;;;11.06;100.00;102257.00;5052096;28;20047;-51
2023/10/01 04:14:17;;;;;;;13.68;7.82;;;;;;;11.05;100.00;102261.44;5051398;28;20029;-54
2023/10/01 04:16:48;;;;;;;12.18;7.38;;;;;;;11.03;100.00;102263.31;5052818;28;20464;-51
2023/10/01 04:19:18;;;;;;;15.90;7.15;;;;;;;11.04;100.00;102259.72;5052057;28;20044;-51
2023/10/01 04:21:50;;;;;;;11.30;6.68;;;;;;;11.05;100.00;102260.56;5048007;28;20025;-52
2023/10/01 04:24:19;;;;;;;12.30;7.38;;;;;;;11.01;100.00;102257.25;5051973;28;20041;-52
2023/10/01 04:26:44;;;;;;;11.63;7.10;;;;;;;11.02;100.00;102264.25;5051901;28;20025;-52
2023/10/01 04:29:11;;;;;;;10.43;6.75;;;;;;;11.04;100.00;102266.81;5050121;28;20036;-51
2023/10/01 04:31:42;;;;;;;16.27;8.00;;;;;;;11.04;100.00;102272.13;5050783;28;20117;-52
2023/10/01 04:34:11;;;;;;;12.75;7.20;;;;;;;11.05;100.00;102263.25;5051098;28;20029;-52
2023/10/01 04:36:44;;;;;;;11.48;7.22;;;;;;;11.03;100.00;102263.31;5048086;28;20028;-51
2023/10/01 04:39:11;;;;;;;12.68;7.00;;;;;;;11.02;100.00;102255.44;5051736;28;20446;-50
2023/10/01 04:41:37;;;;;;;13.35;7.35;;;;;;;11.02;100.00;102250.09;5052040;28;20036;-50
2023/10/01 04:44:06;;;;;;;13.20;7.63;;;;;;;11.02;100.00;102258.09;5051627;28;20513;-50
2023/10/01 04:46:40;;;;;;;14.35;7.70;;;;;;;11.01;100.00;102257.25;5051600;28;20058;-51
2023/10/01 04:49:26;;;;;;;14.30;7.47;;;;;;;11.00;100.00;102257.31;5051381;28;20059;-51
2023/10/01 04:51:54;;;;;;;11.13;7.45;;;;;;;10.98;100.00;102267.19;5051224;28;20025;-52
2023/10/01 04:54:21;;;;;;;14.98;7.97;;;;;;;10.98;100.00;102267.19;5048176;28;20059;-52
2023/10/01 04:56:48;;;;;;;13.57;7.70;;;;;;;10.97;100.00;102260.16;5051636;28;20021;-52
2023/10/01 04:59:14;;;;;;;11.98;7.43;;;;;;;10.98;100.00;102264.53;5051305;28;20376;-52
2023/10/01 05:01:40;;;;;;;11.55;7.22;;;;;;;10.92;100.00;102258.63;5051050;28;20549;-50
2023/10/01 05:04:05;;;;;;;11.88;6.95;;;;;;;10.96;100.00;102255.75;5047933;28;20108;-51
2023/10/01 05:06:31;;;;;;;12.40;7.55;;;;;;;10.97;100.00;102260.16;5051560;28;20418;-51
2023/10/01 05:08:58;;;;;;;12.93;7.57;;;;;;;10.95;100.00;102265.53;5048761;28;20060;-50
2023/10/01 05:11:29;;;;;;;13.82;7.80;;;;;;;10.93;100.00;102267.44;5050986;28;20017;-51
2023/10/01 05:13:58;;;;;;;13.73;7.93;;;;;;;10.95;100.00;102265.53;5047881;28;20060;-52
2023/10/01 05:16:26;;;;;;;13.88;7.85;;;;;;;10.93;100.00;102257.66;5051278;28;20055;-52
2023/10/01 05:19:12;;;;;;;14.85;8.43;;;;;;;10.93;100.00;102256.81;5049360;28;20043;-51
2023/10/01 05:21:49;;;;;;;16.15;8.05;;;;;;;10.94;100.00;102261.16;5050366;28;20029;-51
2023/10/01 05:24:40;;;;;;;15.20;7.95;;;;;;;10.93;100.00;102262.13;5048897;28;20061;-51
2023/10/01 05:27:18;;;;;;;13.05;7.90;;;;;;;10.92;100.00;102271.91;5047156;28;20028;-51
2023/10/01 05:29:46;;;;;;;13.52;7.95;;;;;;;10.89;100.00;102272.06;5047771;28;20032;-51
2023/10/01 05:32:13;;;;;;;14.02;7.90;;;;;;;10.91;100.00;102272.84;5050423;28;20017;-51
2023/10/01 05:34:42;;;;;;;13.43;7.22;;;;;;;10.90;100.00;102272.91;5051484;28;20538;-52
2023/10/01 05:37:08;;;;;;;14.45;7.97;;;;;;;10.90;100.00;102276.41;5049599;28;20029;-52
2023/10/01 05:39:55;;;;;;;12.38;7.68;;;;;;;10.88;100.00;102272.16;5050794;28;20025;-52
2023/10/01 05:42:21;;;;;;;14.45;7.05;;;;;;;10.89;100.00;102280.03;5051431;28;20040;-51
2023/10/01 05:44:47;;;;;;;13.50;7.57;;;;;;;10.90;100.00;102295.03;5055366;28;20052;-52
2023/10/01 05:47:12;;;;;;;13.68;8.10;;;;;;;10.89;100.00;102296.00;5054465;28;20438;-52
2023/10/01 05:49:49;;;;;;;14.38;7.40;;;;;;;10.89;100.00;102297.78;5054404;28;20537;-52
2023/10/01 05:52:17;;;;;;;11.85;7.38;;;;;;;10.89;100.00;102297.78;5052702;28;20029;-52
2023/10/01 05:54:52;;;;;;;13.18;7.70;;;;;;;10.88;100.00;102288.09;5054941;28;20071;-51
2023/10/01 05:57:18;;;;;;;13.68;7.72;;;;;;;10.91;100.00;102279.97;5052179;28;20033;-51
2023/10/01 05:59:56;;;;;;;12.93;7.68;;;;;;;10.90;100.00;102272.91;5054166;28;20029;-52
2023/10/01 06:02:41;;;;;;;12.27;7.57;;;;;;;10.91;100.00;102272.84;5053000;28;20483;-52
2023/10/01 06:05:33;;;;;;;12.68;7.97;;;;;;;10.92;100.00;102274.56;5054731;28;20077;-53
2023/10/01 06:08:12;;;;;;;15.75;8.55;;;;;;;10.93;100.00;102280.72;5050192;28;20038;-52
2023/10/01 06:10:59;;;;;;;14.77;8.30;;;;;;;10.93;100.00;102278.91;5054266;28;20037;-49
2023/10/01 06:13:28;;;;;;;15.43;8.10;;;;;;;10.96;100.00;102279.69;5051806;28;20039;-54
2023/10/01 06:15:57;;;;;;;14.10;7.90;;;;;;;10.98;100.00;102283.13;5054455;28;20119;-51
2023/10/01 06:18:26;;;;;;;13.45;7.68;;;;;;;10.98;100.00;102281.31;5054230;28;20031;-50
2023/10/01 06:20:53;;;;;;;11.15;7.45;;;;;;;11.01;100.00;102277.66;5053054;28;20100;-50
2023/10/01 06:23:19;;;;;;;13.00;7.97;;;;;;;11.02;100.00;102282.00;5054299;28;20021;-51
2023/10/01 06:25:51;;;;;;;14.77;8.05;;;;;;;11.05;100.00;102279.19;5043900;28;20029;-51
2023/10/01 06:28:20;;;;;;;15.18;7.80;;;;;;;11.06;100.00;102287.09;5042951;28;20136;-51
2023/10/01 06:30:46;;;;;;;13.57;7.38;;;;;;;11.08;100.00;102285.19;5040642;28;20025;-54
2023/10/01 06:33:29;;;;;;;14.65;7.93;;;;;;;11.12;100.00;102280.56;5048664;28;20044;-51
2023/10/01 06:38:41;;;;;;;14.05;7.30;;;;;;;11.21;100.00;102280.06;5045966;28;20063;-53
2023/10/01 06:41:06;;;;;;;12.90;7.40;;;;;;;11.27;100.00;102295.69;5047572;28;20029;-51
2023/10/01 06:43:48;;;;;;;13.40;8.07;;;;;;;11.32;100.00;102289.22;5045743;28;20068;-52
2023/10/01 06:46:15;;;;;;;16.10;8.48;;;;;;;11.36;100.00;102275.66;5050160;28;20480;-51
2023/10/01 06:48:42;;;;;;;16.17;7.93;;;;;;;11.43;100.00;102278.84;5044280;28;20383;-52
2023/10/01 06:51:07;;;;;;;14.45;8.05;;;;;;;11.47;100.00;102285.69;5051293;28;20028;-51
2023/10/01 06:53:45;;;;;;;13.88;7.55;;;;;;;11.52;100.00;102280.09;5051324;28;20025;-51
2023/10/01 06:56:15;;;;;;;14.73;8.07;;;;;;;11.58;100.00;102271.78;5050145;28;20029;-51
2023/10/01 06:58:40;;;;;;;;;;;;;;;11.63;100.00;102273.22;5048983;28;20048;-51
2023/10/01 07:01:05;;;;;;;19.95;8.65;;;;;;;11.68;100.00;102272.94;5049677;28;19909;-51
2023/10/01 07:03:31;;;;;;;16.60;8.52;;;;;;;11.72;100.00;102277.13;5047650;28;20060;-54
2023/10/01 07:06:01;;;;;;;13.07;7.57;;;;;;;11.76;100.00;102277.84;5050731;28;20406;-51
2023/10/01 07:08:43;;;;;;;15.63;8.25;;;;;;;11.82;100.00;102266.81;5046131;28;20044;-53
2023/10/01 07:11:17;;;;;;;18.80;8.90;;;;;;;11.87;100.00;102254.06;5045863;28;20080;-51
2023/10/01 07:13:43;;;;;;;14.63;8.73;;;;;;;11.93;100.00;102259.06;5042861;28;20026;-50
2023/10/01 07:16:08;;;;;;;14.90;8.38;;;;;;;12.00;100.00;102262.22;5048765;28;20036;-51
2023/10/01 07:18:37;;;;;;;15.35;7.80;;;;;;;12.07;100.00;102266.22;5052882;28;20043;-51
2023/10/01 07:21:16;;;;;;;16.50;8.10;;;;;;;12.14;100.00;102269.38;5048359;28;20458;-52
2023/10/01 07:23:42;;;;;;;16.45;8.82;;;;;;;12.24;100.00;102270.56;5042092;28;20484;-52
2023/10/01 07:26:12;;;;;;;16.45;9.18;;;;;;;12.33;100.00;102275.31;5049955;28;20021;-52
2023/10/01 07:28:41;;;;;;;16.48;8.77;;;;;;;12.45;100.00;102278.16;5047824;28;20028;-52
2023/10/01 07:31:07;;;;;;;;;;;;;;;12.51;100.00;102283.97;5051462;28;20391;-53
2023/10/01 07:33:33;;;;;;;18.02;8.23;;;;;;;12.66;100.00;102276.00;5046984;28;19912;-52
2023/10/01 07:35:59;;;;;;;14.90;8.35;;;;;;;12.79;100.00;102282.25;5050796;28;20028;-51
2023/10/01 07:38:25;;;;;;;17.17;8.07;;;;;;;12.89;100.00;102277.19;5045798;28;20021;-52
2023/10/01 07:41:07;;;;;;;14.05;8.27;;;;;;;13.00;100.00;102288.03;5048576;28;20025;-54
2023/10/01 07:43:33;;;;;;;17.88;9.02;;;;;;;13.11;100.00;102287.34;5048671;28;20044;-52
2023/10/01 07:46:01;;;;;;;17.45;8.70;;;;;;;13.22;100.00;102283.97;5047131;28;20017;-52
2023/10/01 07:48:31;;;;;;;15.02;8.27;;;;;;;13.29;100.00;102291.50;5043745;28;20013;-51
2023/10/01 07:50:58;;;;;;;16.58;7.90;;;;;;;13.37;100.00;102299.00;5046234;28;20083;-54
2023/10/01 07:53:32;;;;;;;16.15;8.40;;;;;;;13.49;100.00;102294.72;5049657;28;20032;-54
2023/10/01 07:55:59;;;;;;;17.15;8.13;;;;;;;13.61;100.00;102296.56;5046770;28;20023;-54
2023/10/01 07:58:44;;;;;;;15.25;7.97;;;;;;;13.73;100.00;102294.88;5047324;28;20021;-54
2023/10/01 08:03:57;;;;;;;18.10;8.68;;;;;;;14.05;100.00;102291.84;5047035;28;20055;-51
2023/10/01 08:06:34;;;;;;;16.98;8.60;;;;;;;14.22;100.00;102291.56;5046954;28;20029;-52
2023/10/01 08:09:01;;;;;;;14.10;8.50;;;;;;;14.43;100.00;102291.03;5052063;28;20414;-54
2023/10/01 08:14:11;;;;;;;14.82;8.57;;;;;;;14.93;100.00;102283.06;5034803;28;20094;-50
2023/10/01 08:17:00;;;;;;;14.18;8.27;;;;;;;15.16;100.00;102278.72;5050484;28;20091;-52
2023/10/01 08:19:22;;;;;;;15.95;8.10;;;;;;;15.43;100.00;102285.69;5046177;28;20078;-51
2023/10/01 08:21:53;;;;;;;14.95;7.55;;;;;;;15.64;100.00;102294.81;5049698;28;20052;-54
2023/10/01 08:24:19;;;;;;;15.15;7.45;;;;;;;15.95;100.00;102297.84;5047739;28;20104;-51
2023/10/01 08:26:57;;;;;;;14.27;7.60;;;;;;;16.19;100.00;102300.50;5051543;28;20037;-52
2023/10/01 08:29:29;;;;;;;16.25;7.63;;;;;;;16.44;98.96;102303.94;5047402;28;20391;-50
2023/10/01 08:34:24;;;;;;;15.63;7.63;;;;;;;16.90;96.75;102308.34;5049194;28;20494;-51
2023/10/01 08:36:56;;;;;;;14.93;7.65;;;;;;;17.12;96.76;102312.88;5050072;28;20451;-51
2023/10/01 08:42:11;;;;;;;15.93;7.43;;;;;;;17.71;94.34;102316.09;5045313;28;20455;-51
2023/10/01 08:45:04;;;;;;;13.80;7.50;;;;;;;17.92;90.34;102313.50;5050656;28;20032;-51
2023/10/01 08:49:57;;;;;;;19.50;8.65;;;;;;;18.46;89.38;102311.56;5043606;28;20028;-51
2023/10/01 08:52:30;;;;;;;14.38;7.85;;;;;;;18.77;87.12;102319.63;5049237;28;20025;-53
2023/10/01 08:54:57;;;;;;;17.38;8.20;;;;;;;18.99;84.95;102319.47;5048887;28;20030;-51
2023/10/01 08:57:38;;;;;;;14.50;7.57;;;;;;;19.13;82.89;102310.13;5049193;28;20388;-51
2023/10/01 09:00:20;;;;;;;17.63;8.13;;;;;;;19.39;82.17;102315.88;5048249;28;20642;-50
2023/10/01 09:02:55;;;;;;;16.80;8.10;;;;;;;19.52;83.95;102318.31;5045763;28;20076;-50
2023/10/01 09:05:23;;;;;;;14.95;7.63;;;;;;;19.80;82.55;102309.53;5046901;28;20502;-51
2023/10/01 09:08:14;;;;;;;14.07;8.00;;;;;;;19.93;79.20;102310.97;5042876;28;20394;-51
2023/10/01 09:10:39;;;;;;;12.70;7.75;;;;;;;20.13;79.41;102311.78;5046852;28;20045;-51
2023/10/01 09:13:04;;;;;;;15.10;7.97;;;;;;;20.40;78.52;102304.75;5044971;28;20075;-53
2023/10/01 09:15:38;;;;;;;14.00;8.38;;;;;;;20.62;77.37;102306.25;5046630;28;20033;-51
2023/10/01 09:18:10;;;;;;;14.23;7.68;;;;;;;20.92;78.48;102301.59;5041579;28;20457;-51
2023/10/01 09:20:42;;;;;;;14.80;8.38;;;;;;;21.12;75.68;102301.50;5044389;28;20033;-51
2023/10/01 09:23:08;;;;;;;13.90;7.68;;;;;;;21.34;75.11;102302.91;5050956;28;20024;-54
2023/10/01 09:25:39;;;;;;;14.38;7.95;;;;;;;21.41;73.00;102296.72;5046849;28;20052;-51
2023/10/01 09:28:29;;;;;;;17.30;7.70;;;;;;;21.53;73.37;102300.09;5041259;28;20111;-50
2023/10/01 09:30:58;;;;;;;14.55;7.80;;;;;;;21.80;73.01;102284.78;5046313;28;20129;-52
2023/10/01 09:33:24;;;;;;;15.43;8.25;;;;;;;21.97;71.79;102289.28;5046343;28;20045;-51
2023/10/01 09:36:02;;;;;;;15.60;7.30;;;;;;;22.20;71.51;102288.78;5048541;28;20133;-51
2023/10/01 09:38:28;;;;;;;14.07;7.32;;;;;;;22.28;70.20;102277.16;5045755;28;20025;-51
2023/10/01 09:40:55;;;;;;;12.70;7.32;;;;;;;22.39;69.29;102279.63;5043796;28;20037;-51
2023/10/01 09:43:27;;;;;;;13.98;7.72;;;;;;;22.56;68.61;102285.13;5043337;28;20123;-53
2023/10/01 09:45:54;;;;;;;13.50;7.63;;;;;;;22.63;69.14;102288.88;5038737;28;20048;-50
2023/10/01 09:48:32;;;;;;;15.75;7.57;;;;;;;22.84;68.79;102285.75;5040094;28;20029;-50
2023/10/01 09:51:13;;;;;;;12.03;6.47;;;;;;;22.86;70.32;102278.31;5037313;28;20122;-50
2023/10/01 09:53:51;;;;;;;17.27;7.90;;;;;;;23.06;69.03;102295.13;5039715;28;20029;-49
2023/10/01 09:56:27;;;;;;;13.45;7.20;;;;;;;23.25;68.62;102285.91;5039420;28;20608;-50
2023/10/01 09:58:58;;;;;;;15.52;7.50;;;;;;;23.41;66.80;102291.34;5050342;28;20127;-50
2023/10/01 10:01:27;;;;;;;15.15;7.95;;;;;;;23.48;63.45;102285.25;5049633;28;20043;-49
2023/10/01 10:03:56;;;;;;;13.38;7.20;;;;;;;23.55;63.17;102275.41;5047586;28;20025;-50
2023/10/01 10:06:24;;;;;;;14.25;7.68;;;;;;;23.74;63.78;102271.53;5048289;28;20487;-50
2023/10/01 10:09:02;;;;;;;14.02;7.28;;;;;;;24.04;66.72;102274.59;5050103;28;20459;-51
2023/10/01 10:11:30;;;;;;;14.10;7.43;;;;;;;24.20;63.97;102272.69;5051767;28;20029;-50
2023/10/01 10:14:00;;;;;;;18.10;8.03;;;;;;;24.25;63.81;102269.47;5047176;28;20033;-50
2023/10/01 10:16:35;;;;;;;13.05;6.97;;;;;;;24.60;64.10;102278.22;5044982;28;20044;-52
2023/10/01 10:19:04;;;;;;;11.73;7.13;;;;;;;24.62;60.76;102275.31;5045960;28;20063;-53
2023/10/01 10:24:30;;;;;;;13.30;7.60;;;;;;;24.58;59.76;102268.53;5041542;28;20415;-50
2023/10/01 10:26:56;;;;;;;12.98;7.18;;;;;;;24.89;61.54;102265.84;5046859;28;20067;-51
2023/10/01 10:29:23;;;;;;;16.13;7.50;;;;;;;24.92;60.53;102258.19;5047897;28;20075;-50
2023/10/01 10:32:09;;;;;;;16.50;7.55;;;;;;;24.89;63.12;102249.53;5048760;28;20025;-50
2023/10/01 10:34:36;;;;;;;11.80;7.10;;;;;;;24.87;58.65;102255.16;5048406;28;20033;-51
2023/10/01 10:37:06;;;;;;;14.70;7.93;;;;;;;24.83;58.96;102261.13;5051011;28;20021;-50
2023/10/01 10:39:50;;;;;;;14.77;7.55;;;;;;;25.05;61.58;102240.44;5052700;28;20029;-50
2023/10/01 10:42:27;;;;;;;14.15;7.63;;;;;;;25.10;59.16;102240.75;5050273;28;20104;-50
2023/10/01 10:45:24;;;;;;;12.68;7.30;;;;;;;25.24;62.81;102250.00;5050563;28;20036;-50
2023/10/01 10:48:02;;;;;;;13.48;7.47;;;;;;;25.22;57.70;102244.75;5043958;28;20033;-50
2023/10/01 10:50:48;;;;;;;12.70;7.17;;;;;;;25.47;61.34;102247.31;5051205;28;20471;-53
2023/10/01 10:53:20;;;;;;;13.15;7.25;;;;;;;25.55;57.88;102246.41;5046732;28;20021;-51
2023/10/01 10:55:56;;;;;;;11.80;7.13;;;;;;;25.65;58.31;102247.00;5047623;28;20025;-50
2023/10/01 10:58:24;;;;;;;12.43;7.35;;;;;;;25.90;58.67;102238.59;5051971;28;20029;-51
2023/10/01 11:00:53;;;;;;;12.43;7.38;;;;;;;25.94;56.28;102243.47;5053695;28;20474;-49
2023/10/01 11:03:40;;;;;;;14.48;7.53;;;;;;;26.03;58.30;102245.13;5051146;28;20021;-50
2023/10/01 11:06:23;;;;;;;13.32;7.43;;;;;;;26.10;57.07;102245.22;5048698;28;20547;-50
2023/10/01 11:08:51;;;;;;;12.68;6.80;;;;;;;26.22;55.68;102249.16;5039800;28;20037;-50
2023/10/01 11:11:39;;;;;;;13.98;7.22;;;;;;;26.22;56.88;102246.44;5042731;28;20020;-51
2023/10/01 11:14:15;;;;;;;13.48;7.22;;;;;;;26.17;54.81;102248.03;5041013;28;20021;-50
2023/10/01 11:16:44;;;;;;;12.35;7.15;;;;;;;26.18;55.60;102239.69;5041714;28;20014;-50
2023/10/01 11:19:13;;;;;;;12.60;7.18;;;;;;;26.30;55.59;102237.34;5046328;28;20029;-50
2023/10/01 11:22:00;;;;;;;14.90;7.13;;;;;;;26.34;54.95;102232.34;5049485;28;20036;-50
2023/10/01 11:24:31;;;;;;;12.77;7.38;;;;;;;26.36;55.09;102222.09;5044348;28;20029;-51
2023/10/01 11:27:14;;;;;;;13.65;7.95;;;;;;;26.42;56.62;102209.63;5044164;28;20029;-51
2023/10/01 11:29:57;;;;;;;16.70;7.35;;;;;;;26.39;55.45;102206.22;5052053;28;20029;-51
2023/10/01 11:35:41;;;;;;;15.70;7.30;;;;;;;26.22;55.33;102215.63;5051528;28;20071;-50
2023/10/01 11:38:14;;;;;;;15.50;7.72;;;;;;;26.30;54.46;102215.53;5063574;28;20026;-50
2023/10/01 11:43:38;;;;;;;14.50;7.35;;;;;;;26.40;55.18;102201.63;5050530;28;20410;-51
2023/10/01 11:46:25;;;;;;;14.70;7.85;;;;;;;26.36;56.75;102206.63;5052664;28;20466;-50
2023/10/01 11:49:07;;;;;;;12.15;7.32;;;;;;;26.18;56.08;102197.97;5049438;28;20075;-50
2023/10/01 11:51:38;;;;;;;14.20;7.82;;;;;;;26.23;55.85;102201.00;5050756;28;20036;-50
2023/10/01 11:54:12;;;;;;;13.13;7.55;;;;;;;26.10;56.53;102203.53;5052651;28;20135;-50
2023/10/01 11:56:41;;;;;;;14.43;7.40;;;;;;;26.03;54.88;102198.84;5052429;28;20094;-50
2023/10/01 11:59:17;;;;;;;14.63;7.82;;;;;;;25.89;55.27;102204.25;5039867;28;20455;-50
2023/10/01 12:01:54;;;;;;;13.18;7.50;;;;;;;25.68;56.85;102192.22;5048606;28;20090;-50
2023/10/01 12:07:15;;;;;;;17.05;8.13;;;;;;;25.41;55.00;102175.44;5049326;28;20044;-51
2023/10/01 12:09:48;;;;;;;13.98;7.57;;;;;;;25.24;56.71;102171.97;5048845;28;20075;-50